Time;durP1;ratioP1;P1;durP2;ratioP2;P2;SDS_P1;SDS_P2;PMS_P1;PMS_P2;Temp;Humidity;BMP_temperature;BMP_pressure;BME280_temperature;BME280_humidity;BME280_pressure;Samples;Min_cycle;Max_cycle;Signal;HPM_P1;HPM_P2
2023/12/12 00:03:42;;;;;;;18.60;12.60;;;;;;;4.04;91.60;97641.26;226149;1275;22561;-75
2023/12/12 00:08:46;;;;;;;16.20;11.70;;;;;;;3.99;91.16;97637.55;226082;1275;22578;-76
2023/12/12 00:13:48;;;;;;;20.90;12.80;;;;;;;3.94;91.29;97645.30;226039;1275;25246;-76
2023/12/12 00:18:50;;;;;;;19.20;13.90;;;;;;;3.92;91.25;97652.45;226202;1273;25295;-75
2023/12/12 00:23:52;;;;;;;17.40;12.30;;;;;;;3.89;90.95;97663.38;226294;1270;22540;-75
2023/12/12 00:28:54;;;;;;;18.50;12.90;;;;;;;3.88;90.94;97662.44;226210;1272;22560;-75
2023/12/12 00:33:56;;;;;;;19.70;12.50;;;;;;;3.89;90.95;97665.70;226272;1275;22579;-75
2023/12/12 00:38:58;;;;;;;18.90;12.30;;;;;;;3.87;90.73;97661.98;226264;1275;22585;-75
2023/12/12 00:44:00;;;;;;;15.10;11.00;;;;;;;3.87;90.90;97664.14;226205;1267;22920;-75
2023/12/12 00:49:02;;;;;;;19.60;12.30;;;;;;;3.87;90.91;97663.59;226058;1275;22537;-75
2023/12/12 00:54:05;;;;;;;14.10;10.60;;;;;;;3.87;90.89;97675.60;226203;1275;24941;-76
2023/12/12 00:59:07;;;;;;;20.30;12.40;;;;;;;3.88;90.83;97683.73;226181;1275;23053;-75
2023/12/12 01:04:09;;;;;;;19.30;11.70;;;;;;;3.90;91.11;97684.17;226248;1273;25373;-75
2023/12/12 01:09:11;;;;;;;17.20;11.80;;;;;;;3.91;90.95;97691.95;226146;1275;25638;-76
2023/12/12 01:14:13;;;;;;;14.10;10.20;;;;;;;3.92;90.79;97694.07;226218;1272;22549;-76
2023/12/12 01:19:15;;;;;;;15.70;11.20;;;;;;;3.91;90.90;97692.96;226259;1275;22643;-77
2023/12/12 01:24:17;;;;;;;17.30;9.80;;;;;;;3.94;90.77;97697.16;226304;1272;22565;-76
2023/12/12 01:29:19;;;;;;;15.90;10.70;;;;;;;3.96;91.22;97706.34;226255;1275;22700;-75
2023/12/12 01:34:22;;;;;;;15.20;10.30;;;;;;;3.99;91.16;97711.54;226199;1275;22541;-75
2023/12/12 01:39:24;;;;;;;13.70;9.40;;;;;;;4.01;90.96;97717.39;226132;1275;22543;-75
2023/12/12 01:44:26;;;;;;;11.90;8.60;;;;;;;4.02;91.19;97722.67;226170;1275;22646;-77
2023/12/12 01:49:28;;;;;;;13.70;8.50;;;;;;;4.03;91.04;97732.17;226072;1276;22563;-77
2023/12/12 01:54:35;;;;;;;11.80;7.70;;;;;;;4.04;91.08;97729.09;226234;1270;22540;-77
2023/12/12 01:59:38;;;;;;;12.60;8.60;;;;;;;4.05;90.61;97727.10;226153;1273;25978;-76
2023/12/12 02:04:40;;;;;;;9.60;6.40;;;;;;;4.04;90.76;97735.70;226546;1276;22566;-76
2023/12/12 02:09:43;;;;;;;11.10;7.40;;;;;;;4.06;90.79;97738.86;226264;1273;22559;-77
2023/12/12 02:14:45;;;;;;;10.50;7.20;;;;;;;4.06;90.57;97740.56;226108;1276;22540;-77
2023/12/12 02:19:47;;;;;;;12.30;8.20;;;;;;;4.07;90.87;97740.86;226106;1276;22544;-74
2023/12/12 02:24:50;;;;;;;12.70;8.30;;;;;;;4.08;90.49;97746.47;226114;1276;22931;-74
2023/12/12 02:29:52;;;;;;;13.10;8.30;;;;;;;4.07;90.45;97746.53;226359;1273;22536;-77
2023/12/12 02:34:54;;;;;;;12.30;8.60;;;;;;;4.07;90.40;97750.52;226013;1275;22658;-76
2023/12/12 02:39:56;;;;;;;16.70;8.80;;;;;;;4.06;90.36;97749.80;226230;1275;25242;-75
2023/12/12 02:44:58;;;;;;;12.70;8.40;;;;;;;4.04;90.37;97753.89;226195;1275;22544;-75
2023/12/12 02:50:01;;;;;;;13.30;8.40;;;;;;;4.02;90.48;97756.13;226236;1273;22546;-76
2023/12/12 02:55:03;;;;;;;12.10;7.90;;;;;;;4.02;90.39;97766.44;226174;1276;23028;-74
2023/12/12 03:00:06;;;;;;;11.60;7.70;;;;;;;4.03;90.48;97773.85;226289;1273;22544;-77
2023/12/12 03:05:08;;;;;;;10.90;6.80;;;;;;;4.05;90.42;97780.15;226168;1276;22537;-77
2023/12/12 03:10:10;;;;;;;10.30;6.20;;;;;;;4.10;90.34;97786.84;226296;1275;22524;-75
2023/12/12 03:15:13;;;;;;;10.70;6.50;;;;;;;4.13;90.45;97792.38;226239;1254;22576;-74
2023/12/12 03:20:15;;;;;;;8.60;6.20;;;;;;;4.17;90.36;97790.99;226154;1275;22559;-74
2023/12/12 03:25:17;;;;;;;8.60;5.30;;;;;;;4.21;90.39;97789.67;226301;1267;22598;-74
2023/12/12 03:30:20;;;;;;;7.40;5.10;;;;;;;4.27;90.08;97790.14;226211;1275;22551;-76
2023/12/12 03:35:22;;;;;;;6.40;4.20;;;;;;;4.32;90.42;97787.34;226147;1271;22968;-76
2023/12/12 03:40:24;;;;;;;7.10;3.70;;;;;;;4.37;90.30;97787.00;226317;1275;22550;-74
2023/12/12 03:45:26;;;;;;;4.70;3.90;;;;;;;4.45;90.05;97788.39;226157;1275;22539;-78
2023/12/12 03:50:28;;;;;;;6.60;3.60;;;;;;;4.52;89.98;97789.19;226229;1257;22561;-75
2023/12/12 03:55:30;;;;;;;3.90;3.10;;;;;;;4.59;89.74;97799.50;226210;1273;22562;-74
2023/12/12 04:00:32;;;;;;;6.20;3.50;;;;;;;4.64;89.22;97804.40;226299;1275;22593;-74
2023/12/12 04:05:35;;;;;;;5.40;2.80;;;;;;;4.68;89.44;97807.75;226185;1275;22547;-75
2023/12/12 04:10:37;;;;;;;3.10;2.70;;;;;;;4.70;89.21;97813.27;226172;1275;22555;-75
2023/12/12 04:15:39;;;;;;;3.70;2.40;;;;;;;4.71;88.76;97819.31;226255;1275;24238;-74
2023/12/12 04:20:41;;;;;;;9.20;4.30;;;;;;;4.73;88.99;97828.65;226187;1275;22557;-75
2023/12/12 04:25:44;;;;;;;5.90;3.20;;;;;;;4.75;88.76;97828.80;226184;1275;22612;-75
2023/12/12 04:30:46;;;;;;;5.40;3.00;;;;;;;4.78;88.91;97835.52;226267;1275;22545;-76
2023/12/12 04:35:49;;;;;;;4.80;2.70;;;;;;;4.81;88.55;97836.11;226270;1275;22560;-76
2023/12/12 04:40:51;;;;;;;5.20;3.00;;;;;;;4.85;88.68;97843.35;226175;1275;22582;-75
2023/12/12 04:45:53;;;;;;;4.80;2.60;;;;;;;4.86;88.33;97843.90;226263;1275;22560;-74
2023/12/12 04:50:55;;;;;;;5.60;2.90;;;;;;;4.85;88.26;97846.59;226261;1274;22557;-74
2023/12/12 04:55:57;;;;;;;4.70;3.10;;;;;;;4.83;88.06;97853.86;226381;1273;22536;-74
2023/12/12 05:00:59;;;;;;;4.70;3.00;;;;;;;4.83;88.17;97857.13;226101;1275;22533;-74
2023/12/12 05:06:01;;;;;;;4.50;3.00;;;;;;;4.83;87.81;97868.34;226218;1273;22651;-75
2023/12/12 05:11:06;;;;;;;7.30;2.80;;;;;;;4.85;87.97;97881.20;226458;1275;22557;-75
2023/12/12 05:16:09;;;;;;;5.30;2.90;;;;;;;4.87;87.99;97881.61;226169;1272;22541;-75
2023/12/12 05:21:30;;;;;;;4.80;3.00;;;;;;;4.87;87.69;97880.11;226308;1275;22555;-75
2023/12/12 05:26:32;;;;;;;4.00;2.90;;;;;;;4.86;87.60;97880.05;226274;1275;22536;-75
2023/12/12 05:31:34;;;;;;;4.90;3.00;;;;;;;4.81;87.53;97884.15;226447;1270;22545;-74
2023/12/12 05:36:36;;;;;;;4.30;2.80;;;;;;;4.80;87.76;97888.31;226355;1272;22939;-76
2023/12/12 05:41:38;;;;;;;7.60;3.10;;;;;;;4.80;87.47;97896.36;226195;1275;22544;-75
2023/12/12 05:46:40;;;;;;;5.20;3.00;;;;;;;4.80;87.35;97905.65;226302;1275;22540;-74
2023/12/12 05:51:43;;;;;;;6.20;3.10;;;;;;;4.81;87.43;97912.55;226382;1275;22548;-74
2023/12/12 05:56:45;;;;;;;5.50;3.20;;;;;;;4.80;87.40;97928.48;226283;1270;22555;-76
2023/12/12 06:01:48;;;;;;;6.20;3.50;;;;;;;4.81;87.56;97938.45;226214;1275;22948;-75
2023/12/12 06:06:50;;;;;;;7.00;3.60;;;;;;;4.83;87.80;97944.90;226258;1254;22983;-76
2023/12/12 06:11:52;;;;;;;8.70;4.20;;;;;;;4.81;87.92;97960.77;226314;1275;22532;-75
2023/12/12 06:16:54;;;;;;;8.30;4.30;;;;;;;4.79;87.68;97965.09;226256;1271;22550;-74
2023/12/12 06:21:56;;;;;;;7.30;4.50;;;;;;;4.78;88.16;97971.63;226338;1275;22566;-74
2023/12/12 06:26:58;;;;;;;12.30;4.80;;;;;;;4.74;87.98;97974.02;226495;1272;22536;-74
2023/12/12 06:32:01;;;;;;;8.10;4.40;;;;;;;4.62;87.84;97983.48;226236;1275;22569;-75
2023/12/12 06:37:03;;;;;;;8.20;4.40;;;;;;;4.50;88.12;97985.02;226184;1272;22574;-75
2023/12/12 06:42:05;;;;;;;6.70;4.20;;;;;;;4.44;88.06;97994.09;226194;1273;22694;-76
2023/12/12 06:47:09;;;;;;;9.30;4.80;;;;;;;4.42;88.46;97994.32;226223;1267;22548;-75
2023/12/12 06:52:11;;;;;;;19.10;6.10;;;;;;;4.43;88.30;97999.25;226021;1251;23157;-73
2023/12/12 06:57:14;;;;;;;15.20;8.30;;;;;;;4.47;88.75;98000.56;226189;1256;25446;-73
2023/12/12 07:02:16;;;;;;;5.80;4.00;;;;;;;4.50;88.63;97998.66;226062;1257;22539;-73
2023/12/12 07:07:18;;;;;;;8.60;4.60;;;;;;;4.48;88.71;98003.56;225531;1253;22565;-76
2023/12/12 07:12:20;;;;;;;9.50;5.50;;;;;;;4.46;88.95;98008.99;226014;1256;22600;-76
2023/12/12 07:17:22;;;;;;;12.20;5.00;;;;;;;4.45;88.68;98012.66;225976;1263;22537;-71
2023/12/12 07:22:24;;;;;;;12.50;5.90;;;;;;;4.45;89.01;98021.63;225952;1254;22549;-79
2023/12/12 07:27:27;;;;;;;9.60;5.10;;;;;;;4.49;89.26;98030.11;225832;1255;22555;-75
2023/12/12 07:32:30;;;;;;;8.60;5.30;;;;;;;4.56;89.22;98033.87;225733;1254;25370;-77
2023/12/12 07:37:32;;;;;;;7.40;5.50;;;;;;;4.63;89.22;98036.93;225804;1262;22915;-75
2023/12/12 07:42:35;;;;;;;8.10;5.40;;;;;;;4.72;88.95;98046.31;225906;1253;22555;-75
2023/12/12 07:47:37;;;;;;;18.90;9.40;;;;;;;4.79;89.15;98048.14;226012;1267;22647;-76
2023/12/12 07:52:44;;;;;;;16.50;6.60;;;;;;;4.87;88.86;98057.17;225859;1263;22572;-75
2023/12/12 07:57:47;;;;;;;11.50;6.30;;;;;;;4.94;89.03;98064.17;225867;1253;22566;-75
2023/12/12 08:02:49;;;;;;;10.30;5.90;;;;;;;5.02;88.94;98071.66;225951;1255;23758;-76
2023/12/12 08:07:52;;;;;;;15.60;5.90;;;;;;;5.12;88.80;98082.75;225879;1253;23117;-76
2023/12/12 08:12:54;;;;;;;19.00;7.40;;;;;;;5.14;88.62;98084.81;226004;1250;22562;-77
2023/12/12 08:17:57;;;;;;;14.30;8.10;;;;;;;5.18;88.70;98088.80;225896;1253;22543;-74
2023/12/12 08:23:00;;;;;;;14.60;8.70;;;;;;;5.21;88.74;98087.48;226025;1257;22555;-75
2023/12/12 08:28:03;;;;;;;10.20;6.70;;;;;;;5.27;88.42;98095.25;226046;1263;23275;-76
2023/12/12 08:33:05;;;;;;;9.00;5.90;;;;;;;5.28;87.90;98104.38;226138;1256;22680;-76
2023/12/12 08:38:07;;;;;;;9.80;6.60;;;;;;;5.29;88.44;98105.85;225870;1250;22541;-74
2023/12/12 08:43:09;;;;;;;12.20;7.00;;;;;;;5.30;88.16;98112.82;225895;1257;22897;-79
2023/12/12 08:48:12;;;;;;;14.20;7.80;;;;;;;5.34;88.48;98115.81;225972;1253;22541;-75
2023/12/12 08:53:15;;;;;;;16.00;9.30;;;;;;;5.39;88.05;98122.02;226114;1256;22532;-76
2023/12/12 08:58:18;;;;;;;13.40;8.50;;;;;;;5.40;87.72;98127.52;226148;1253;22536;-75
2023/12/12 09:03:20;;;;;;;17.50;11.40;;;;;;;5.42;87.57;98130.08;226036;1250;22648;-75
2023/12/12 09:08:22;;;;;;;17.90;11.80;;;;;;;5.48;87.67;98123.47;225738;1262;22530;-75
2023/12/12 09:13:26;;;;;;;20.80;13.10;;;;;;;5.53;87.42;98118.19;225764;1266;22560;-74
2023/12/12 09:18:28;;;;;;;20.50;11.90;;;;;;;5.53;87.61;98129.00;225760;1253;24837;-75
2023/12/12 09:23:30;;;;;;;20.50;12.40;;;;;;;5.60;87.79;98127.20;225575;1266;22645;-77
2023/12/12 09:28:33;;;;;;;29.90;13.40;;;;;;;5.63;87.21;98129.77;226093;1250;22547;-78
2023/12/12 09:33:35;;;;;;;24.50;11.70;;;;;;;5.67;87.03;98128.91;225950;1251;22991;-79
2023/12/12 09:38:38;;;;;;;19.10;12.40;;;;;;;5.66;86.90;98129.08;225839;1272;22536;-74
2023/12/12 09:43:40;;;;;;;22.60;12.00;;;;;;;5.66;86.67;98118.58;226249;1267;24272;-73
2023/12/12 09:48:45;;;;;;;20.50;11.60;;;;;;;5.65;86.54;98122.60;226200;1253;22536;-74
2023/12/12 09:53:48;;;;;;;20.80;12.20;;;;;;;5.64;86.51;98119.17;226196;1262;22559;-74
2023/12/12 09:58:50;;;;;;;20.60;11.80;;;;;;;5.64;86.61;98116.16;226054;1254;25265;-73
2023/12/12 10:03:54;;;;;;;20.00;11.00;;;;;;;5.68;86.37;98118.92;226173;1271;25323;-79
2023/12/12 10:08:57;;;;;;;22.10;12.50;;;;;;;5.73;86.32;98120.31;226028;1253;22545;-77
2023/12/12 10:14:00;;;;;;;20.30;12.30;;;;;;;5.75;85.91;98115.39;225947;1266;22534;-73
2023/12/12 10:19:03;;;;;;;18.10;11.00;;;;;;;5.75;85.77;98114.52;225979;1262;22650;-76
2023/12/12 10:24:05;;;;;;;18.70;10.90;;;;;;;5.80;86.26;98112.10;225989;1269;22545;-76
2023/12/12 10:29:07;;;;;;;17.40;9.40;;;;;;;5.91;86.00;98118.71;225838;1253;22541;-75
2023/12/12 10:34:09;;;;;;;18.80;11.20;;;;;;;5.95;85.59;98125.98;225744;1250;22548;-76
2023/12/12 10:39:14;;;;;;;16.70;10.40;;;;;;;5.98;85.59;98127.70;225721;1253;25349;-76
2023/12/12 10:44:21;;;;;;;16.50;9.60;;;;;;;6.04;85.63;98123.94;225953;1255;23146;-77
2023/12/12 10:49:28;;;;;;;16.20;9.40;;;;;;;6.12;85.51;98120.75;226104;1269;22694;-76
2023/12/12 10:54:36;;;;;;;14.10;9.30;;;;;;;6.18;85.05;98119.30;225833;1256;23082;-76
2023/12/12 10:59:40;;;;;;;15.30;9.50;;;;;;;6.29;84.96;98124.52;226029;1267;25694;-79
2023/12/12 11:05:04;;;;;;;16.00;9.70;;;;;;;6.43;84.95;98122.20;225834;1266;23098;-76
2023/12/12 11:10:14;;;;;;;14.60;9.00;;;;;;;6.57;84.82;98128.36;225925;1266;22578;-76
2023/12/12 11:15:18;;;;;;;13.60;8.50;;;;;;;6.78;85.22;98120.63;225915;1262;22562;-76
2023/12/12 11:20:20;;;;;;;15.50;8.90;;;;;;;6.95;84.39;98125.32;225629;1272;22602;-76
2023/12/12 11:25:28;;;;;;;14.90;9.00;;;;;;;7.00;83.99;98132.54;225536;1258;153578;-77
2023/12/12 11:30:38;;;;;;;15.40;8.80;;;;;;;7.03;83.69;98135.52;225952;1261;22573;-78
2023/12/12 11:35:41;;;;;;;16.30;8.70;;;;;;;7.04;83.45;98131.90;225825;1261;22575;-76
2023/12/12 11:40:43;;;;;;;15.10;8.60;;;;;;;7.11;83.75;98124.45;225806;1266;22588;-77
2023/12/12 11:45:46;;;;;;;15.10;8.80;;;;;;;7.22;83.99;98128.41;226003;1253;22549;-76
2023/12/12 11:50:49;;;;;;;14.10;7.70;;;;;;;7.36;84.03;98132.65;225852;1269;22571;-77
2023/12/12 11:56:00;;;;;;;13.50;7.70;;;;;;;7.46;83.52;98134.27;226155;1262;22545;-76
2023/12/12 12:01:02;;;;;;;;;;;;;;;7.58;83.31;98128.81;226673;1251;22527;-76
2023/12/12 12:06:05;;;;;;;11.60;6.60;;;;;;;7.66;83.09;98124.55;225925;1262;22612;-76
2023/12/12 12:11:08;;;;;;;9.80;6.00;;;;;;;7.70;83.19;98120.47;225966;1255;22544;-76
2023/12/12 12:16:11;;;;;;;8.70;5.50;;;;;;;7.76;82.93;98111.71;225977;1275;22545;-75
2023/12/12 12:21:13;;;;;;;9.50;5.30;;;;;;;7.81;82.60;98105.30;226105;1256;22537;-77
2023/12/12 12:26:15;;;;;;;8.30;5.50;;;;;;;7.77;82.29;98104.32;226070;1251;22559;-76
2023/12/12 12:31:28;;;;;;;10.20;5.90;;;;;;;7.76;82.37;98106.41;225901;1256;22540;-75
2023/12/12 12:36:37;;;;;;;9.90;5.80;;;;;;;7.72;82.18;98109.77;225803;1251;22572;-76
2023/12/12 12:41:40;;;;;;;9.80;6.60;;;;;;;7.63;81.96;98109.02;226020;1251;22556;-82
2023/12/12 12:46:51;;;;;;;9.40;5.80;;;;;;;7.57;82.10;98110.89;225713;1251;22630;-75
2023/12/12 12:51:53;;;;;;;8.90;5.40;;;;;;;7.43;81.85;98109.60;225909;1272;22567;-79
2023/12/12 12:56:56;;;;;;;9.80;6.20;;;;;;;7.33;81.98;98105.33;225758;1256;22679;-80
2023/12/12 13:01:58;;;;;;;8.00;5.30;;;;;;;7.25;81.91;98095.81;225844;1256;22551;-78
2023/12/12 13:07:03;;;;;;;10.90;6.90;;;;;;;7.21;81.97;98094.62;226047;1255;24235;-78
2023/12/12 13:12:06;;;;;;;9.50;5.80;;;;;;;7.20;82.38;98091.50;225737;1269;22526;-75
2023/12/12 13:17:08;;;;;;;10.10;6.40;;;;;;;7.26;82.45;98084.02;225897;1253;22543;-78
2023/12/12 13:22:11;;;;;;;9.50;6.00;;;;;;;7.35;82.65;98076.52;225840;1250;23173;-77
2023/12/12 13:27:14;;;;;;;10.60;6.40;;;;;;;7.42;82.96;98074.45;225711;1255;27259;-79
2023/12/12 13:32:16;;;;;;;8.10;5.70;;;;;;;7.50;82.78;98075.11;225730;1261;25420;-75
2023/12/12 13:37:18;;;;;;;9.10;5.90;;;;;;;7.54;82.15;98068.01;225859;1269;22550;-76
2023/12/12 13:42:22;;;;;;;9.00;6.10;;;;;;;7.59;82.63;98069.58;225845;1253;22560;-76
2023/12/12 13:47:27;;;;;;;11.70;7.20;;;;;;;7.59;82.30;98066.63;225623;1262;22548;-75
2023/12/12 13:52:31;;;;;;;10.70;6.70;;;;;;;7.57;82.72;98069.92;225890;1270;24934;-76
2023/12/12 13:57:34;;;;;;;9.30;6.40;;;;;;;7.44;82.50;98073.02;226059;1263;22950;-75
2023/12/12 14:02:36;;;;;;;11.10;6.70;;;;;;;7.37;82.42;98071.41;225743;1256;22536;-76
2023/12/12 14:07:40;;;;;;;16.70;9.60;;;;;;;7.36;82.70;98066.30;225871;1266;22552;-76
2023/12/12 14:12:42;;;;;;;16.30;7.80;;;;;;;7.34;82.86;98068.66;226125;1272;24269;-78
2023/12/12 14:17:44;;;;;;;18.80;8.40;;;;;;;7.27;82.35;98075.10;225973;1256;22560;-78
2023/12/12 14:22:47;;;;;;;13.20;8.20;;;;;;;7.17;82.71;98075.63;225995;1262;22929;-77
2023/12/12 14:28:06;;;;;;;16.80;9.90;;;;;;;7.08;82.51;98077.05;226025;1256;22770;-77
2023/12/12 14:33:10;;;;;;;11.90;7.40;;;;;;;6.98;82.10;98076.83;225927;1256;22654;-76
2023/12/12 14:38:13;;;;;;;12.70;6.70;;;;;;;6.89;82.46;98074.81;225978;1253;22552;-75
2023/12/12 14:43:15;;;;;;;13.70;7.40;;;;;;;6.79;82.71;98073.15;226033;1273;25998;-75
2023/12/12 14:48:17;;;;;;;14.20;7.30;;;;;;;6.69;82.70;98073.73;226086;1270;22621;-77
2023/12/12 14:53:20;;;;;;;16.30;8.70;;;;;;;6.62;82.86;98076.39;226149;1262;22547;-75
2023/12/12 14:58:21;;;;;;;25.70;17.40;;;;;;;6.55;82.70;98079.50;226217;1266;24267;-76
2023/12/12 15:03:23;;;;;;;14.60;8.60;;;;;;;6.47;83.10;98076.58;225837;1269;22570;-75
2023/12/12 15:08:26;;;;;;;14.60;8.00;;;;;;;6.41;83.16;98075.54;226059;1256;22537;-76
2023/12/12 15:13:28;;;;;;;14.60;8.90;;;;;;;6.33;83.16;98072.40;226000;1272;22554;-74
2023/12/12 15:18:30;;;;;;;14.60;8.30;;;;;;;6.28;83.61;98067.40;226034;1272;22578;-74
2023/12/12 15:23:33;;;;;;;13.60;8.90;;;;;;;6.25;83.71;98069.55;226232;1272;22691;-73
2023/12/12 15:28:35;;;;;;;17.30;9.80;;;;;;;6.21;83.55;98068.79;226279;1265;22544;-75
2023/12/12 15:33:40;;;;;;;18.40;10.20;;;;;;;6.17;83.64;98057.34;226351;1272;22550;-74
2023/12/12 15:38:42;;;;;;;21.90;10.20;;;;;;;6.12;83.57;98062.48;226475;1272;23024;-74
2023/12/12 15:43:44;;;;;;;14.00;9.70;;;;;;;6.07;83.85;98065.58;226415;1272;22949;-75
2023/12/12 15:48:46;;;;;;;18.30;10.30;;;;;;;6.01;83.98;98061.29;226405;1272;22544;-74
2023/12/12 15:53:50;;;;;;;24.50;12.90;;;;;;;5.98;84.02;98062.02;226479;1275;22571;-74
2023/12/12 15:58:53;;;;;;;22.50;12.20;;;;;;;5.94;84.14;98062.65;226480;1272;24212;-74
2023/12/12 16:03:57;;;;;;;24.40;12.80;;;;;;;5.91;84.36;98058.98;226376;1275;22623;-77
2023/12/12 16:09:00;;;;;;;23.20;12.50;;;;;;;5.89;84.44;98059.91;226411;1275;22602;-74
2023/12/12 16:14:03;;;;;;;20.60;12.20;;;;;;;5.85;84.52;98060.01;226318;1275;22562;-74
2023/12/12 16:19:05;;;;;;;22.70;12.70;;;;;;;5.82;84.33;98057.00;226465;1272;22676;-75
2023/12/12 16:24:08;;;;;;;19.00;11.10;;;;;;;5.80;84.67;98055.68;226528;1274;23010;-74
2023/12/12 16:29:10;;;;;;;22.50;12.70;;;;;;;5.78;84.49;98049.98;226367;1272;22536;-75
2023/12/12 16:34:12;;;;;;;22.00;12.10;;;;;;;5.75;84.90;98044.95;226368;1273;22540;-76
2023/12/12 16:39:14;;;;;;;19.90;11.90;;;;;;;5.72;84.82;98043.92;226404;1275;23399;-74
2023/12/12 16:44:17;;;;;;;20.50;13.20;;;;;;;5.67;84.72;98043.56;226287;1259;24304;-75
2023/12/12 16:49:19;;;;;;;25.80;14.70;;;;;;;5.65;85.01;98042.12;226400;1272;26098;-74
2023/12/12 16:54:21;;;;;;;37.80;19.50;;;;;;;5.63;85.13;98036.86;226301;1275;22534;-74
2023/12/12 16:59:24;;;;;;;39.90;20.60;;;;;;;5.61;84.99;98039.13;226348;1275;22543;-74
2023/12/12 17:04:28;;;;;;;34.90;20.10;;;;;;;5.56;84.96;98030.87;226297;1275;22590;-74
2023/12/12 17:09:30;;;;;;;32.70;18.60;;;;;;;5.51;84.76;98024.45;226396;1275;22544;-75
2023/12/12 17:14:32;;;;;;;34.00;18.70;;;;;;;5.46;85.31;98020.87;226490;1272;22828;-74
2023/12/12 17:19:36;;;;;;;35.80;18.50;;;;;;;5.41;85.15;98018.10;226464;1272;22553;-75
2023/12/12 17:24:38;;;;;;;35.10;18.40;;;;;;;5.38;85.04;98022.14;226320;1266;22540;-75
2023/12/12 17:29:40;;;;;;;35.50;18.40;;;;;;;5.36;84.91;98022.71;226316;1275;22549;-74
2023/12/12 17:34:45;;;;;;;29.20;16.10;;;;;;;5.33;85.38;98030.19;226401;1274;23909;-74
2023/12/12 17:39:48;;;;;;;24.60;12.80;;;;;;;5.30;85.08;98025.05;226493;1275;22608;-76
2023/12/12 17:44:50;;;;;;;20.30;11.30;;;;;;;5.28;85.37;98024.05;226508;1272;22550;-74
2023/12/12 17:49:52;;;;;;;23.80;11.90;;;;;;;5.26;85.80;98025.89;226551;1272;22555;-75
2023/12/12 17:54:54;;;;;;;23.50;11.70;;;;;;;5.21;85.47;98018.06;226399;1272;22586;-74
2023/12/12 17:59:56;;;;;;;24.70;12.40;;;;;;;5.17;85.57;98014.17;226493;1272;22581;-75
2023/12/12 18:04:58;;;;;;;24.50;12.30;;;;;;;5.15;85.83;98008.61;226541;1272;22540;-76
2023/12/12 18:10:01;;;;;;;19.70;11.00;;;;;;;5.13;85.83;98012.88;226274;1273;22551;-74
2023/12/12 18:15:05;;;;;;;25.90;12.30;;;;;;;5.09;85.87;98007.00;226495;1272;22535;-75
2023/12/12 18:20:09;;;;;;;28.10;13.40;;;;;;;5.04;85.97;98000.25;226329;1272;22553;-75
2023/12/12 18:25:12;;;;;;;29.50;13.40;;;;;;;4.99;85.69;97994.80;226338;1275;22647;-74
2023/12/12 18:30:14;;;;;;;31.20;14.60;;;;;;;4.91;85.72;97988.45;226184;1269;25363;-74
2023/12/12 18:35:17;;;;;;;30.50;15.80;;;;;;;4.82;85.67;97989.67;226347;1273;22618;-75
2023/12/12 18:40:22;;;;;;;24.40;15.10;;;;;;;4.73;85.96;97988.38;226316;1275;25361;-74
2023/12/12 18:45:24;;;;;;;32.20;16.60;;;;;;;4.65;86.08;97984.41;226382;1270;22549;-76
2023/12/12 18:50:30;;;;;;;27.50;15.30;;;;;;;4.57;86.12;97984.02;226338;1272;22560;-75
2023/12/12 18:55:33;;;;;;;33.00;17.00;;;;;;;4.49;86.12;97970.97;226318;1275;22594;-74
2023/12/12 19:00:36;;;;;;;32.80;18.60;;;;;;;4.42;86.31;97968.88;226387;1272;22563;-75
2023/12/12 19:05:39;;;;;;;36.80;20.50;;;;;;;4.31;86.13;97969.61;226216;1275;23063;-75
2023/12/12 19:10:48;;;;;;;33.90;19.60;;;;;;;4.20;86.67;97970.94;226272;1275;22646;-74
2023/12/12 19:15:52;;;;;;;35.40;19.30;;;;;;;4.10;86.53;97979.14;226684;1275;22544;-75
2023/12/12 19:20:54;;;;;;;31.60;19.30;;;;;;;4.05;86.68;97974.02;226582;1275;22554;-74
2023/12/12 19:25:58;;;;;;;31.70;18.70;;;;;;;4.00;86.74;97962.98;226301;1275;22550;-74
2023/12/12 19:31:01;;;;;;;35.80;19.60;;;;;;;3.95;86.90;97947.00;226155;1274;22551;-75
2023/12/12 19:36:04;;;;;;;39.40;21.60;;;;;;;3.88;87.02;97930.21;226419;1275;25505;-75
2023/12/12 19:41:08;;;;;;;40.60;23.40;;;;;;;3.77;87.01;97918.09;226271;1275;23028;-76
2023/12/12 19:46:10;;;;;;;41.60;24.50;;;;;;;3.65;86.86;97919.80;226287;1252;22534;-75
2023/12/12 19:51:13;;;;;;;42.70;24.00;;;;;;;3.53;86.99;97934.88;226183;1273;24216;-75
2023/12/12 19:56:15;;;;;;;47.40;26.80;;;;;;;3.41;87.03;97929.33;226335;1272;22547;-75
2023/12/12 20:01:17;;;;;;;42.50;25.20;;;;;;;3.31;87.27;97929.52;226301;1266;22541;-75
2023/12/12 20:06:19;;;;;;;48.00;27.40;;;;;;;3.21;87.18;97955.66;226227;1274;22542;-74
2023/12/12 20:11:23;;;;;;;65.30;35.00;;;;;;;3.18;87.43;97978.09;226324;1273;22543;-75
2023/12/12 20:16:26;;;;;;;70.50;40.20;;;;;;;3.21;87.65;97992.95;226325;1273;22540;-76
2023/12/12 20:21:30;;;;;;;74.20;41.20;;;;;;;3.27;87.57;97981.99;226364;1271;22584;-76
2023/12/12 20:26:43;;;;;;;69.70;39.50;;;;;;;3.35;87.71;97972.08;226349;1274;22555;-74
2023/12/12 20:31:46;;;;;;;61.40;35.60;;;;;;;3.44;87.66;97961.27;226399;1270;22547;-74
2023/12/12 20:36:49;;;;;;;59.20;33.60;;;;;;;3.49;87.86;97956.48;226427;1273;23025;-74
2023/12/12 20:41:51;;;;;;;57.50;30.90;;;;;;;3.52;87.46;97942.77;226345;1273;22537;-76
2023/12/12 20:46:54;;;;;;;43.10;25.60;;;;;;;3.53;87.70;97938.86;226368;1266;22557;-74
2023/12/12 20:51:56;;;;;;;38.80;23.50;;;;;;;3.56;87.79;97930.23;226383;1274;22574;-75
2023/12/12 20:57:04;;;;;;;38.40;22.80;;;;;;;3.59;87.63;97923.79;226331;1274;22551;-74
2023/12/12 21:02:07;;;;;;;39.60;22.90;;;;;;;3.63;87.63;97916.88;226234;1273;24354;-77
2023/12/12 21:07:09;;;;;;;39.00;21.70;;;;;;;3.68;87.58;97911.48;226359;1259;22587;-75
2023/12/12 21:12:11;;;;;;;36.20;21.90;;;;;;;3.71;87.55;97910.98;226117;1274;22548;-75
2023/12/12 21:17:13;;;;;;;34.70;21.40;;;;;;;3.72;87.35;97903.40;226511;1271;22540;-74
2023/12/12 21:22:15;;;;;;;33.60;19.70;;;;;;;3.68;87.47;97887.23;226381;1274;22690;-75
2023/12/12 21:27:18;;;;;;;38.90;20.40;;;;;;;3.61;87.16;97873.23;226285;1274;22545;-74
2023/12/12 21:32:20;;;;;;;36.90;19.70;;;;;;;3.51;87.14;97872.02;226356;1261;22554;-74
2023/12/12 21:37:22;;;;;;;36.40;19.40;;;;;;;3.41;87.38;97868.40;226220;1275;22567;-76
2023/12/12 21:42:24;;;;;;;38.40;20.50;;;;;;;3.31;87.21;97862.27;226238;1275;22543;-76
2023/12/12 21:47:26;;;;;;;39.70;19.40;;;;;;;3.20;87.27;97863.79;226454;1272;22584;-74
2023/12/12 21:52:29;;;;;;;37.00;19.40;;;;;;;3.10;87.18;97857.34;226466;1271;22563;-75
2023/12/12 21:57:32;;;;;;;32.80;17.60;;;;;;;3.01;87.18;97839.84;226407;1259;22706;-75
2023/12/12 22:02:35;;;;;;;37.70;20.30;;;;;;;2.95;87.16;97829.39;226402;1273;22570;-74
2023/12/12 22:07:41;;;;;;;45.30;22.30;;;;;;;2.92;87.21;97826.21;226429;1275;22540;-75
2023/12/12 22:12:43;;;;;;;30.60;15.50;;;;;;;2.98;87.39;97826.11;226341;1269;22625;-75
2023/12/12 22:17:45;;;;;;;29.50;16.20;;;;;;;3.04;87.23;97840.27;226502;1274;24248;-74
2023/12/12 22:22:48;;;;;;;37.10;18.20;;;;;;;3.09;87.28;97835.52;226436;1273;24253;-75
2023/12/12 22:27:50;;;;;;;39.40;19.90;;;;;;;3.18;87.33;97827.08;226484;1257;22545;-75
2023/12/12 22:32:53;;;;;;;34.60;19.50;;;;;;;3.28;87.51;97831.45;226533;1273;22540;-75
2023/12/12 22:37:55;;;;;;;35.80;17.90;;;;;;;3.38;87.60;97832.05;226472;1272;22550;-75
2023/12/12 22:43:04;;;;;;;32.80;15.40;;;;;;;3.49;87.53;97820.77;226377;1275;22530;-75
2023/12/12 22:48:06;;;;;;;32.90;16.00;;;;;;;3.58;87.34;97817.19;226442;1274;22550;-75
2023/12/12 22:53:08;;;;;;;33.60;16.50;;;;;;;3.65;87.21;97806.14;226495;1256;22564;-75
2023/12/12 22:58:10;;;;;;;34.10;17.50;;;;;;;3.71;87.15;97795.83;226345;1270;22547;-75
2023/12/12 23:03:12;;;;;;;37.60;18.50;;;;;;;3.77;87.15;97802.46;226488;1272;22532;-76
2023/12/12 23:08:14;;;;;;;23.40;13.60;;;;;;;3.83;87.06;97796.73;226313;1274;22545;-76
2023/12/12 23:13:16;;;;;;;28.00;13.80;;;;;;;3.92;87.04;97795.64;226317;1270;25967;-75
2023/12/12 23:18:18;;;;;;;27.00;12.20;;;;;;;4.00;86.81;97790.19;226496;1267;22557;-75
2023/12/12 23:23:20;;;;;;;19.40;10.60;;;;;;;4.08;87.22;97779.16;226445;1275;171335;-75
2023/12/12 23:28:23;;;;;;;18.80;11.10;;;;;;;4.17;86.78;97776.27;226504;1263;22573;-77